Time;durP1;ratioP1;P1;durP2;ratioP2;P2;SDS_P1;SDS_P2;PMS_P1;PMS_P2;Temp;Humidity;BMP_temperature;BMP_pressure;BME280_temperature;BME280_humidity;BME280_pressure;Samples;Min_cycle;Max_cycle;Signal;HPM_P1;HPM_P2
2021/06/29 00:02:15;;;;;;;1.50;1.30;;;;;;;;;;5006889;28;20511;-79
2021/06/29 00:04:41;;;;;;;1.85;1.33;;;;;;;;;;5020183;28;20199;-79
2021/06/29 00:07:07;;;;;;;1.50;1.40;;;;;;;;;;5003042;28;20217;-79
2021/06/29 00:09:34;;;;;;;2.92;1.60;;;;;;;;;;5017164;28;20286;-79
2021/06/29 00:12:00;;;;;;;2.35;1.52;;;;;;;;;;5000751;28;20199;-79
2021/06/29 00:14:26;;;;;;;4.43;1.55;;;;;;;;;;5021289;28;20183;-79
2021/06/29 00:16:52;;;;;;;1.30;1.20;;;;;;;;;;5003704;28;20230;-79
2021/06/29 00:19:19;;;;;;;4.45;1.60;;;;;;;;;;5019383;28;20916;-79
2021/06/29 00:21:45;;;;;;;4.13;1.88;;;;;;;;;;5002568;28;20245;-79
2021/06/29 00:24:11;;;;;;;2.90;1.77;;;;;;;;;;5002235;28;20192;-78
2021/06/29 00:26:37;;;;;;;1.53;1.43;;;;;;;;;;5019795;28;20186;-78
2021/06/29 00:29:03;;;;;;;3.17;1.77;;;;;;;;;;5007873;28;20421;-79
2021/06/29 00:31:29;;;;;;;2.05;1.60;;;;;;;;;;5002612;28;20446;-79
2021/06/29 00:33:55;;;;;;;2.92;1.65;;;;;;;;;;5002911;28;20200;-79
2021/06/29 00:36:21;;;;;;;1.87;1.53;;;;;;;;;;5002366;28;20213;-78
2021/06/29 00:38:47;;;;;;;1.83;1.33;;;;;;;;;;5017840;28;20438;-79
2021/06/29 00:41:14;;;;;;;2.47;1.30;;;;;;;;;;5006813;28;20966;-79
2021/06/29 00:43:47;;;;;;;6.47;2.65;;;;;;;;;;5003508;28;20442;-79
2021/06/29 00:46:13;;;;;;;3.80;1.80;;;;;;;;;;5003441;28;20267;-78
2021/06/29 00:48:39;;;;;;;3.25;1.80;;;;;;;;;;5001854;28;20186;-79
2021/06/29 00:51:05;;;;;;;1.83;1.50;;;;;;;;;;5018645;28;20218;-79
2021/06/29 00:53:31;;;;;;;1.75;1.40;;;;;;;;;;5020368;28;20518;-79
2021/06/29 00:55:57;;;;;;;2.90;1.67;;;;;;;;;;5003365;28;20215;-79
2021/06/29 00:58:23;;;;;;;1.92;1.70;;;;;;;;;;5002089;28;20897;-79
2021/06/29 01:00:51;;;;;;;5.93;2.00;;;;;;;;;;5017564;28;20183;-79
2021/06/29 01:03:17;;;;;;;1.67;1.30;;;;;;;;;;5018151;28;20438;-79
2021/06/29 01:05:43;;;;;;;1.85;1.50;;;;;;;;;;5014057;28;20184;-79
2021/06/29 01:08:09;;;;;;;2.83;1.50;;;;;;;;;;5005999;28;20187;-79
2021/06/29 01:10:36;;;;;;;1.90;1.77;;;;;;;;;;5017851;28;20181;-79
2021/06/29 01:13:02;;;;;;;1.55;1.45;;;;;;;;;;5000717;28;20183;-79
2021/06/29 01:15:28;;;;;;;2.30;1.85;;;;;;;;;;5017218;28;20276;-79
2021/06/29 01:17:55;;;;;;;2.30;1.70;;;;;;;;;;5012870;28;20190;-79
2021/06/29 01:20:25;;;;;;;1.95;1.75;;;;;;;;;;5006217;28;20186;-79
2021/06/29 01:22:54;;;;;;;3.20;1.85;;;;;;;;;;5002454;28;20213;-79
2021/06/29 01:25:22;;;;;;;2.58;1.80;;;;;;;;;;5001531;28;20206;-79
2021/06/29 01:33:45;;;;;;;2.28;1.83;;;;;;;;;;4961195;28;20195;-79
2021/06/29 01:36:17;;;;;;;1.80;1.52;;;;;;;;;;4960754;28;20179;-79
2021/06/29 01:38:44;;;;;;;3.20;2.00;;;;;;;;;;4962291;28;20192;-79
2021/06/29 01:41:11;;;;;;;3.25;1.58;;;;;;;;;;4964058;28;20220;-79
2021/06/29 01:44:04;;;;;;;1.95;1.80;;;;;;;;;;4957801;28;20734;-78
2021/06/29 01:46:27;;;;;;;2.00;1.90;;;;;;;;;;4958058;28;20230;-79
2021/06/29 01:48:54;;;;;;;1.80;1.70;;;;;;;;;;4961468;28;20203;-79
2021/06/29 01:51:21;;;;;;;2.53;1.70;;;;;;;;;;4960901;28;20172;-79
2021/06/29 01:53:51;;;;;;;5.15;1.80;;;;;;;;;;4961396;28;20206;-79
2021/06/29 01:56:22;;;;;;;2.92;2.63;;;;;;;;;;4955111;28;20237;-79
2021/06/29 01:58:54;;;;;;;4.75;1.95;;;;;;;;;;4961358;28;20223;-79
2021/06/29 02:01:20;;;;;;;1.65;1.55;;;;;;;;;;4961083;28;20210;-79
2021/06/29 02:03:46;;;;;;;2.15;1.60;;;;;;;;;;4960677;28;20188;-79
2021/06/29 02:06:14;;;;;;;3.15;1.48;;;;;;;;;;4962763;28;20225;-79
2021/06/29 02:08:39;;;;;;;2.85;1.60;;;;;;;;;;4986698;28;20198;-79
2021/06/29 02:11:05;;;;;;;1.70;1.60;;;;;;;;;;5003057;28;20200;-79
2021/06/29 02:13:31;;;;;;;3.70;1.50;;;;;;;;;;5001329;28;20475;-79
2021/06/29 02:15:59;;;;;;;2.67;1.35;;;;;;;;;;5000353;28;20285;-79
2021/06/29 02:18:25;;;;;;;1.98;1.77;;;;;;;;;;5001349;28;20181;-79
2021/06/29 02:20:51;;;;;;;4.03;1.67;;;;;;;;;;5015534;28;20182;-79
2021/06/29 02:23:17;;;;;;;4.43;1.70;;;;;;;;;;5020430;28;20186;-79
2021/06/29 02:25:44;;;;;;;2.53;1.60;;;;;;;;;;5016589;28;20197;-79
2021/06/29 02:28:10;;;;;;;2.40;2.20;;;;;;;;;;5000127;28;20186;-79
2021/06/29 02:30:36;;;;;;;2.50;2.00;;;;;;;;;;5016542;28;20182;-79
2021/06/29 02:33:02;;;;;;;3.03;1.83;;;;;;;;;;4999615;28;20441;-79
2021/06/29 02:35:28;;;;;;;3.35;2.13;;;;;;;;;;5003679;28;20183;-78
2021/06/29 02:37:54;;;;;;;1.80;1.60;;;;;;;;;;4997924;28;20661;-79
2021/06/29 02:40:20;;;;;;;2.00;1.42;;;;;;;;;;5013186;28;20192;-79
2021/06/29 02:42:47;;;;;;;1.70;1.27;;;;;;;;;;5000186;28;20294;-79
2021/06/29 02:45:17;;;;;;;2.38;1.70;;;;;;;;;;5000178;28;20206;-79
2021/06/29 02:47:44;;;;;;;4.35;1.70;;;;;;;;;;5017095;28;20241;-78
2021/06/29 02:50:10;;;;;;;2.65;1.63;;;;;;;;;;5002315;28;20587;-79
2021/06/29 02:52:37;;;;;;;2.80;1.50;;;;;;;;;;4999932;28;20201;-79
2021/06/29 02:55:04;;;;;;;3.83;1.63;;;;;;;;;;4999801;28;20189;-79
2021/06/29 02:57:30;;;;;;;1.70;1.60;;;;;;;;;;5014977;28;20281;-79
2021/06/29 02:59:56;;;;;;;3.00;1.70;;;;;;;;;;5011680;28;20741;-79
2021/06/29 03:02:22;;;;;;;2.60;1.43;;;;;;;;;;5019366;28;20463;-78
2021/06/29 03:04:48;;;;;;;3.85;1.60;;;;;;;;;;5001747;28;20413;-79
2021/06/29 03:07:14;;;;;;;2.20;1.90;;;;;;;;;;5015375;28;20197;-79
2021/06/29 03:09:40;;;;;;;2.03;1.60;;;;;;;;;;5013863;28;20191;-80
2021/06/29 03:12:07;;;;;;;3.00;1.67;;;;;;;;;;5012999;28;20190;-78
2021/06/29 03:14:36;;;;;;;1.80;1.70;;;;;;;;;;5018206;28;20498;-79
2021/06/29 03:17:06;;;;;;;1.70;1.60;;;;;;;;;;5002690;28;20172;-79
2021/06/29 03:19:35;;;;;;;7.35;1.95;;;;;;;;;;5000456;28;20186;-79
2021/06/29 03:22:01;;;;;;;2.72;1.95;;;;;;;;;;4999862;28;20673;-79
2021/06/29 03:24:30;;;;;;;3.13;1.60;;;;;;;;;;5015793;28;20267;-79
2021/06/29 03:26:57;;;;;;;4.93;1.83;;;;;;;;;;5014992;28;20192;-79
2021/06/29 03:29:23;;;;;;;2.33;1.98;;;;;;;;;;5018982;28;20205;-79
2021/06/29 03:31:49;;;;;;;1.88;1.48;;;;;;;;;;5000649;28;20616;-79
2021/06/29 03:34:15;;;;;;;1.85;1.75;;;;;;;;;;4999035;28;20196;-78
2021/06/29 03:36:42;;;;;;;1.88;1.77;;;;;;;;;;4999170;28;20266;-79
2021/06/29 03:39:08;;;;;;;2.63;1.70;;;;;;;;;;5015881;28;20244;-79
2021/06/29 03:41:35;;;;;;;1.95;1.75;;;;;;;;;;5002403;28;20213;-79
2021/06/29 03:44:01;;;;;;;3.22;1.85;;;;;;;;;;5000981;28;20240;-79
2021/06/29 03:46:28;;;;;;;3.67;1.75;;;;;;;;;;4999340;28;20190;-79
2021/06/29 03:48:54;;;;;;;3.40;1.90;;;;;;;;;;5014557;28;20187;-79
2021/06/29 03:51:20;;;;;;;1.60;1.50;;;;;;;;;;5016141;28;20193;-78
2021/06/29 03:53:46;;;;;;;3.15;1.70;;;;;;;;;;5010662;28;20194;-79
2021/06/29 03:56:27;;;;;;;2.40;1.40;;;;;;;;;;5003158;28;20212;-78
2021/06/29 03:59:00;;;;;;;1.50;1.40;;;;;;;;;;5000490;28;20183;-79
2021/06/29 04:01:26;;;;;;;2.20;1.75;;;;;;;;;;5000127;28;20230;-79
2021/06/29 04:03:54;;;;;;;5.28;2.13;;;;;;;;;;5000576;28;20490;-79
2021/06/29 04:06:21;;;;;;;3.72;1.85;;;;;;;;;;5000646;28;20277;-79
2021/06/29 04:08:47;;;;;;;5.40;2.35;;;;;;;;;;5012283;28;20191;-79
2021/06/29 04:11:13;;;;;;;1.80;1.70;;;;;;;;;;5002503;28;20190;-79
2021/06/29 04:13:39;;;;;;;2.22;1.75;;;;;;;;;;4999004;28;20223;-79
2021/06/29 04:16:05;;;;;;;4.60;2.20;;;;;;;;;;4999782;28;20648;-78
2021/06/29 04:18:31;;;;;;;2.30;1.83;;;;;;;;;;5013972;28;20537;-79
2021/06/29 04:20:57;;;;;;;1.77;1.67;;;;;;;;;;5011635;28;20439;-79
2021/06/29 04:23:23;;;;;;;8.35;1.95;;;;;;;;;;5018517;28;20418;-79
2021/06/29 04:25:49;;;;;;;2.60;1.50;;;;;;;;;;5001251;28;20190;-79
2021/06/29 04:28:15;;;;;;;2.07;1.43;;;;;;;;;;4998819;28;20434;-79
2021/06/29 04:30:41;;;;;;;1.60;1.50;;;;;;;;;;5012298;28;20450;-79
2021/06/29 04:33:07;;;;;;;3.72;1.55;;;;;;;;;;5012544;28;20209;-79
2021/06/29 04:35:33;;;;;;;1.40;1.30;;;;;;;;;;5003058;28;20183;-79
2021/06/29 04:37:59;;;;;;;3.83;1.70;;;;;;;;;;5000449;28;20413;-79
2021/06/29 04:40:25;;;;;;;2.33;1.50;;;;;;;;;;4999954;28;20183;-79
2021/06/29 04:42:51;;;;;;;1.90;1.70;;;;;;;;;;4999673;28;20497;-79
2021/06/29 04:45:17;;;;;;;2.00;1.80;;;;;;;;;;5014662;28;20650;-79
2021/06/29 04:47:47;;;;;;;2.47;1.90;;;;;;;;;;5015906;28;20501;-79
2021/06/29 04:50:14;;;;;;;5.10;1.80;;;;;;;;;;5005798;28;20174;-78
2021/06/29 04:52:40;;;;;;;1.38;1.27;;;;;;;;;;5005500;28;20648;-78
2021/06/29 04:55:06;;;;;;;1.95;1.55;;;;;;;;;;5003415;28;20213;-78
2021/06/29 04:57:33;;;;;;;2.70;1.60;;;;;;;;;;5017008;28;20751;-78
2021/06/29 05:00:05;;;;;;;1.65;1.48;;;;;;;;;;5014741;28;20179;-79
2021/06/29 05:02:31;;;;;;;3.58;2.08;;;;;;;;;;5005836;28;20202;-78
2021/06/29 05:04:57;;;;;;;3.10;1.93;;;;;;;;;;5021548;28;20205;-79
2021/06/29 05:07:23;;;;;;;2.33;2.00;;;;;;;;;;4999055;28;20470;-79
2021/06/29 05:09:49;;;;;;;2.43;2.23;;;;;;;;;;5003143;28;20442;-79
2021/06/29 05:12:15;;;;;;;3.80;2.90;;;;;;;;;;5017614;28;20445;-79
2021/06/29 05:14:41;;;;;;;4.50;2.90;;;;;;;;;;5016366;28;20187;-79
2021/06/29 05:17:07;;;;;;;6.40;4.20;;;;;;;;;;5002460;28;20210;-79
2021/06/29 05:19:33;;;;;;;4.13;2.33;;;;;;;;;;5013876;28;20442;-78
2021/06/29 05:21:59;;;;;;;4.43;1.88;;;;;;;;;;5002651;28;20207;-79
2021/06/29 05:24:26;;;;;;;2.58;1.70;;;;;;;;;;5002900;28;20183;-79
2021/06/29 05:26:52;;;;;;;11.02;2.50;;;;;;;;;;4999197;28;20528;-79
2021/06/29 05:29:18;;;;;;;2.15;1.98;;;;;;;;;;4997940;28;20242;-79
2021/06/29 05:31:44;;;;;;;1.73;1.63;;;;;;;;;;5017564;28;20195;-79
2021/06/29 05:34:10;;;;;;;1.92;1.83;;;;;;;;;;5001236;28;20455;-79
2021/06/29 05:36:37;;;;;;;2.47;2.05;;;;;;;;;;5000843;28;20213;-78
2021/06/29 05:39:04;;;;;;;1.73;1.63;;;;;;;;;;5001875;28;20180;-78
2021/06/29 05:41:30;;;;;;;5.97;2.38;;;;;;;;;;5019558;28;20229;-77
2021/06/29 05:43:56;;;;;;;2.45;1.75;;;;;;;;;;4999461;28;20186;-78
2021/06/29 05:46:22;;;;;;;1.90;1.80;;;;;;;;;;4999824;28;20202;-78
2021/06/29 05:48:50;;;;;;;3.45;1.80;;;;;;;;;;5002124;28;20675;-78
2021/06/29 05:51:16;;;;;;;2.85;1.75;;;;;;;;;;5016090;28;20183;-78
2021/06/29 05:53:42;;;;;;;2.22;1.90;;;;;;;;;;5013322;28;20197;-78
2021/06/29 05:56:10;;;;;;;2.57;2.37;;;;;;;;;;5000437;28;20254;-78
2021/06/29 05:58:37;;;;;;;2.55;1.77;;;;;;;;;;5001260;28;20438;-78
2021/06/29 06:01:03;;;;;;;2.58;1.65;;;;;;;;;;5016462;28;20187;-78
2021/06/29 06:03:29;;;;;;;2.17;1.80;;;;;;;;;;5017929;28;20187;-79
2021/06/29 06:05:55;;;;;;;2.50;2.10;;;;;;;;;;5016657;28;20243;-79
2021/06/29 06:08:21;;;;;;;2.17;1.98;;;;;;;;;;5019419;28;20417;-79
2021/06/29 06:10:47;;;;;;;1.60;1.50;;;;;;;;;;5001904;28;20183;-79
2021/06/29 06:13:13;;;;;;;2.30;1.90;;;;;;;;;;5002685;28;20438;-78
2021/06/29 06:15:39;;;;;;;5.13;1.90;;;;;;;;;;5015935;28;20844;-78
2021/06/29 06:18:06;;;;;;;2.65;2.45;;;;;;;;;;5017365;28;20186;-79
2021/06/29 06:20:33;;;;;;;3.00;2.47;;;;;;;;;;5018519;28;20175;-78
2021/06/29 06:22:59;;;;;;;8.85;2.53;;;;;;;;;;5001491;28;20211;-79
2021/06/29 06:25:25;;;;;;;3.60;2.17;;;;;;;;;;5001915;28;20187;-78
2021/06/29 06:27:51;;;;;;;3.10;2.35;;;;;;;;;;5000195;28;20506;-78
2021/06/29 06:30:18;;;;;;;3.47;2.27;;;;;;;;;;5000344;28;20202;-77
2021/06/29 06:32:44;;;;;;;2.03;1.80;;;;;;;;;;5002500;28;20435;-78
2021/06/29 06:35:11;;;;;;;3.35;2.30;;;;;;;;;;5003305;28;20206;-78
2021/06/29 06:37:37;;;;;;;2.40;2.20;;;;;;;;;;5001393;28;20210;-78
2021/06/29 06:40:04;;;;;;;2.80;2.60;;;;;;;;;;5002919;28;20540;-78
2021/06/29 06:42:30;;;;;;;2.42;2.22;;;;;;;;;;5014695;28;20230;-78
2021/06/29 06:44:57;;;;;;;2.47;2.22;;;;;;;;;;5011949;28;20191;-77
2021/06/29 06:47:23;;;;;;;2.97;2.67;;;;;;;;;;5019331;28;20171;-77
2021/06/29 06:49:51;;;;;;;7.13;2.92;;;;;;;;;;5001961;28;20164;-76
2021/06/29 06:52:17;;;;;;;3.50;3.20;;;;;;;;;;5000138;28;20202;-76
2021/06/29 06:54:43;;;;;;;3.90;3.05;;;;;;;;;;5016321;28;20198;-76
2021/06/29 06:57:10;;;;;;;2.90;2.70;;;;;;;;;;5015857;28;20184;-77
2021/06/29 06:59:36;;;;;;;3.42;3.10;;;;;;;;;;5017516;28;20213;-79
2021/06/29 07:02:02;;;;;;;4.30;3.15;;;;;;;;;;4998696;28;20231;-78
2021/06/29 07:04:28;;;;;;;3.80;3.15;;;;;;;;;;5009186;28;20187;-79
2021/06/29 07:06:54;;;;;;;5.70;3.67;;;;;;;;;;4999619;28;20206;-80
2021/06/29 07:09:20;;;;;;;3.58;3.28;;;;;;;;;;5001412;28;20926;-79
2021/06/29 07:11:46;;;;;;;4.28;3.42;;;;;;;;;;5015136;28;20271;-80
2021/06/29 07:14:12;;;;;;;4.75;4.07;;;;;;;;;;5002002;28;20186;-79
2021/06/29 07:16:39;;;;;;;4.10;3.80;;;;;;;;;;5000749;28;20230;-79
2021/06/29 07:19:05;;;;;;;3.30;3.00;;;;;;;;;;5016575;28;20433;-80
2021/06/29 07:21:31;;;;;;;3.83;3.10;;;;;;;;;;5014558;28;20237;-81
2021/06/29 07:23:57;;;;;;;5.05;3.85;;;;;;;;;;5015850;28;20183;-82
2021/06/29 07:26:24;;;;;;;4.95;3.35;;;;;;;;;;5018370;28;20187;-84
2021/06/29 07:28:50;;;;;;;4.80;3.60;;;;;;;;;;5000670;28;20253;-83
2021/06/29 07:31:17;;;;;;;3.50;3.20;;;;;;;;;;5001624;28;20660;-83
2021/06/29 07:33:44;;;;;;;4.07;3.78;;;;;;;;;;4998607;28;20226;-82
2021/06/29 07:36:12;;;;;;;4.50;3.80;;;;;;;;;;5000977;28;20175;-83
2021/06/29 07:38:38;;;;;;;3.95;3.40;;;;;;;;;;5017469;28;20206;-84
2021/06/29 07:41:04;;;;;;;3.88;3.10;;;;;;;;;;4999884;28;20190;-82
2021/06/29 07:43:30;;;;;;;3.38;3.08;;;;;;;;;;5000372;28;20183;-84
2021/06/29 07:45:56;;;;;;;4.03;3.72;;;;;;;;;;5013282;28;20555;-83
2021/06/29 07:48:22;;;;;;;5.80;3.30;;;;;;;;;;4999997;28;20175;-84
2021/06/29 07:50:48;;;;;;;3.30;3.00;;;;;;;;;;4995511;28;20438;-83
2021/06/29 07:53:14;;;;;;;3.42;3.13;;;;;;;;;;5002234;28;20454;-83
2021/06/29 07:55:40;;;;;;;3.70;3.30;;;;;;;;;;4997689;28;20195;-82
2021/06/29 07:58:06;;;;;;;3.40;3.10;;;;;;;;;;5001687;28;20191;-82
2021/06/29 08:00:35;;;;;;;3.03;2.80;;;;;;;;;;4998813;28;20233;-82
2021/06/29 08:03:01;;;;;;;3.58;3.28;;;;;;;;;;5000699;28;20467;-83
2021/06/29 08:05:27;;;;;;;5.53;3.07;;;;;;;;;;5018017;28;20198;-83
2021/06/29 08:07:53;;;;;;;4.78;3.20;;;;;;;;;;5001861;28;20418;-83
2021/06/29 08:10:19;;;;;;;3.22;2.92;;;;;;;;;;5015291;28;20533;-83
2021/06/29 08:12:46;;;;;;;5.32;3.00;;;;;;;;;;5014883;28;20509;-83
2021/06/29 08:15:13;;;;;;;4.25;3.20;;;;;;;;;;5015224;28;20223;-83
2021/06/29 08:17:39;;;;;;;6.50;2.88;;;;;;;;;;5017421;28;20179;-83
2021/06/29 08:20:06;;;;;;;8.38;3.30;;;;;;;;;;5002212;28;20210;-84
2021/06/29 08:22:32;;;;;;;4.85;3.00;;;;;;;;;;5000810;28;20233;-85
2021/06/29 08:24:58;;;;;;;4.82;3.65;;;;;;;;;;5003128;28;20186;-84
2021/06/29 08:27:24;;;;;;;3.40;3.10;;;;;;;;;;5020123;28;20195;-83
2021/06/29 08:29:53;;;;;;;4.20;2.97;;;;;;;;;;5018938;28;20344;-83
2021/06/29 08:32:19;;;;;;;3.80;3.35;;;;;;;;;;5018829;28;20175;-82
2021/06/29 08:34:45;;;;;;;4.88;3.50;;;;;;;;;;5020155;28;20187;-85
2021/06/29 08:37:11;;;;;;;3.30;3.00;;;;;;;;;;5002124;28;20186;-83
2021/06/29 08:39:37;;;;;;;2.80;2.40;;;;;;;;;;5003080;28;20187;-84
2021/06/29 08:42:04;;;;;;;3.33;2.87;;;;;;;;;;5018935;28;20211;-85
2021/06/29 08:44:30;;;;;;;4.25;3.10;;;;;;;;;;5021163;28;20426;-84
2021/06/29 08:46:56;;;;;;;3.13;2.87;;;;;;;;;;5022336;28;20179;-84
2021/06/29 08:49:22;;;;;;;3.85;3.38;;;;;;;;;;5018614;28;20409;-83
2021/06/29 08:51:51;;;;;;;2.75;2.15;;;;;;;;;;5018411;28;20222;-82
2021/06/29 08:54:17;;;;;;;3.50;2.60;;;;;;;;;;5020116;28;20270;-82
2021/06/29 08:56:43;;;;;;;2.60;2.40;;;;;;;;;;5004985;28;20198;-82
2021/06/29 08:59:09;;;;;;;3.00;2.07;;;;;;;;;;5007139;28;20179;-82
2021/06/29 09:01:35;;;;;;;1.93;1.83;;;;;;;;;;5018003;28;20555;-82
2021/06/29 09:04:01;;;;;;;2.60;1.93;;;;;;;;;;5001807;28;20449;-82
2021/06/29 09:06:37;;;;;;;2.22;2.03;;;;;;;;;;5001407;28;20465;-82
2021/06/29 09:09:22;;;;;;;2.67;2.30;;;;;;;;;;5018437;28;20203;-81
2021/06/29 09:11:48;;;;;;;2.20;1.88;;;;;;;;;;5012414;28;20187;-81
2021/06/29 09:14:16;;;;;;;2.33;1.98;;;;;;;;;;5004898;28;20250;-81
2021/06/29 09:16:43;;;;;;;1.70;1.60;;;;;;;;;;5002775;28;20220;-81
2021/06/29 09:19:09;;;;;;;1.70;1.50;;;;;;;;;;5002606;28;20186;-81
2021/06/29 09:21:36;;;;;;;1.80;1.50;;;;;;;;;;5001220;28;20226;-82
2021/06/29 09:24:03;;;;;;;2.40;1.70;;;;;;;;;;5003110;28;20184;-81
2021/06/29 09:26:29;;;;;;;2.40;1.67;;;;;;;;;;5004884;28;20202;-82
2021/06/29 09:29:00;;;;;;;3.90;1.65;;;;;;;;;;5002865;28;20175;-81
2021/06/29 09:31:33;;;;;;;2.65;1.60;;;;;;;;;;5017571;28;20175;-82
2021/06/29 09:34:00;;;;;;;2.10;1.60;;;;;;;;;;5000442;28;20202;-82
2021/06/29 09:36:28;;;;;;;2.35;1.58;;;;;;;;;;5002754;28;20668;-81
2021/06/29 09:38:56;;;;;;;2.00;1.52;;;;;;;;;;5017126;28;20270;-82
2021/06/29 09:41:29;;;;;;;1.40;1.30;;;;;;;;;;5004968;28;20230;-81
2021/06/29 09:44:06;;;;;;;1.30;1.20;;;;;;;;;;5002076;28;20179;-82
2021/06/29 09:46:32;;;;;;;1.80;1.42;;;;;;;;;;5001180;28;20190;-81
2021/06/29 09:49:00;;;;;;;1.73;1.30;;;;;;;;;;5002716;28;20187;-81
2021/06/29 09:51:29;;;;;;;4.30;1.45;;;;;;;;;;5015835;28;20179;-81
2021/06/29 09:53:59;;;;;;;2.85;1.60;;;;;;;;;;4998943;28;20194;-81
2021/06/29 09:56:26;;;;;;;4.50;1.40;;;;;;;;;;5019256;28;20226;-81
2021/06/29 09:59:00;;;;;;;1.33;1.23;;;;;;;;;;5003179;28;20182;-80
2021/06/29 10:01:29;;;;;;;1.27;1.17;;;;;;;;;;5000978;28;20203;-81
2021/06/29 10:03:55;;;;;;;1.50;1.05;;;;;;;;;;5016414;28;20251;-79
2021/06/29 10:06:22;;;;;;;2.28;1.23;;;;;;;;;;5002019;28;20183;-80
2021/06/29 10:08:49;;;;;;;1.30;1.17;;;;;;;;;;5002537;28;20210;-79
2021/06/29 10:11:15;;;;;;;1.50;1.00;;;;;;;;;;5004707;28;20194;-79
2021/06/29 10:13:46;;;;;;;1.35;0.80;;;;;;;;;;5001011;28;20194;-80
2021/06/29 10:16:13;;;;;;;1.05;0.90;;;;;;;;;;5000495;28;20306;-79
2021/06/29 10:18:48;;;;;;;1.13;0.90;;;;;;;;;;5014481;28;20183;-78
2021/06/29 10:21:17;;;;;;;0.90;0.90;;;;;;;;;;5016345;28;20601;-78
2021/06/29 10:23:43;;;;;;;0.70;0.70;;;;;;;;;;5013277;28;20186;-78
2021/06/29 10:26:10;;;;;;;1.77;0.93;;;;;;;;;;5003630;28;21053;-78
2021/06/29 10:28:36;;;;;;;1.77;0.98;;;;;;;;;;5001408;28;20595;-78
2021/06/29 10:31:03;;;;;;;1.38;1.27;;;;;;;;;;5002811;28;20179;-78
2021/06/29 10:33:29;;;;;;;1.90;1.10;;;;;;;;;;5000696;28;20186;-79
2021/06/29 10:35:55;;;;;;;1.98;0.90;;;;;;;;;;5016100;28;20428;-79
2021/06/29 10:38:23;;;;;;;2.38;1.23;;;;;;;;;;5020190;28;20178;-80
2021/06/29 10:40:53;;;;;;;1.02;0.93;;;;;;;;;;5016975;28;20167;-77
2021/06/29 10:43:19;;;;;;;2.05;1.05;;;;;;;;;;5000703;28;20186;-79
2021/06/29 10:45:48;;;;;;;1.00;0.90;;;;;;;;;;4999154;28;20187;-78
2021/06/29 10:48:20;;;;;;;0.90;0.80;;;;;;;;;;5017043;28;20202;-78
2021/06/29 10:50:46;;;;;;;1.08;0.88;;;;;;;;;;5016843;28;20701;-79
2021/06/29 10:53:31;;;;;;;0.88;0.88;;;;;;;;;;5001948;28;20179;-78
2021/06/29 10:55:57;;;;;;;1.08;0.80;;;;;;;;;;4999754;28;20193;-78
2021/06/29 10:58:33;;;;;;;0.85;0.80;;;;;;;;;;5015988;28;20195;-79
2021/06/29 11:01:18;;;;;;;0.90;0.70;;;;;;;;;;4998639;28;20178;-78
2021/06/29 11:03:44;;;;;;;0.70;0.70;;;;;;;;;;5012815;28;20203;-77
2021/06/29 11:06:11;;;;;;;0.90;0.90;;;;;;;;;;5014549;28;20190;-78
2021/06/29 11:08:47;;;;;;;1.25;1.00;;;;;;;;;;5001924;28;20360;-78
2021/06/29 11:11:14;;;;;;;4.82;1.25;;;;;;;;;;5000991;28;20208;-80
2021/06/29 11:13:43;;;;;;;1.67;1.15;;;;;;;;;;5015277;28;20197;-77
2021/06/29 11:16:09;;;;;;;0.90;0.80;;;;;;;;;;5014122;28;20464;-77
2021/06/29 11:18:35;;;;;;;0.80;0.73;;;;;;;;;;4999734;28;20262;-78
2021/06/29 11:21:04;;;;;;;1.60;1.10;;;;;;;;;;5014128;28;20216;-77
2021/06/29 11:23:32;;;;;;;0.90;0.90;;;;;;;;;;5012643;28;20423;-77
2021/06/29 11:26:13;;;;;;;1.33;0.90;;;;;;;;;;5000402;28;20173;-76
2021/06/29 11:28:44;;;;;;;2.55;0.90;;;;;;;;;;5015842;28;20181;-77
2021/06/29 11:31:10;;;;;;;1.15;1.05;;;;;;;;;;5020459;28;20239;-77
2021/06/29 11:33:36;;;;;;;0.90;0.73;;;;;;;;;;4999967;28;20706;-77
2021/06/29 11:36:03;;;;;;;0.80;0.73;;;;;;;;;;5000110;28;20182;-76
2021/06/29 11:38:39;;;;;;;1.27;0.87;;;;;;;;;;5017254;28;20401;-77
2021/06/29 11:41:25;;;;;;;2.57;0.90;;;;;;;;;;5001263;28;20444;-76
2021/06/29 11:43:51;;;;;;;0.83;0.80;;;;;;;;;;4999824;28;20761;-77
2021/06/29 11:46:36;;;;;;;1.40;1.00;;;;;;;;;;4997706;28;20430;-76
2021/06/29 11:49:08;;;;;;;2.22;1.15;;;;;;;;;;4999680;28;20464;-77
2021/06/29 11:51:53;;;;;;;1.00;0.90;;;;;;;;;;5007770;28;20213;-76
2021/06/29 11:54:27;;;;;;;1.30;1.10;;;;;;;;;;4999633;28;20424;-77
2021/06/29 11:56:55;;;;;;;0.90;0.80;;;;;;;;;;5011279;28;20446;-77
2021/06/29 11:59:25;;;;;;;1.53;1.43;;;;;;;;;;5022607;28;20397;-77
2021/06/29 12:02:04;;;;;;;1.10;0.80;;;;;;;;;;5018783;28;20479;-76
2021/06/29 12:04:30;;;;;;;2.05;1.13;;;;;;;;;;5003900;28;20209;-76
2021/06/29 12:07:00;;;;;;;1.10;0.90;;;;;;;;;;5004962;28;20186;-75
2021/06/29 12:09:29;;;;;;;1.00;0.80;;;;;;;;;;5005125;28;20203;-75
2021/06/29 12:12:14;;;;;;;0.90;0.90;;;;;;;;;;5017823;28;20194;-77
2021/06/29 12:14:40;;;;;;;1.17;1.05;;;;;;;;;;5020077;28;20246;-76
2021/06/29 12:17:06;;;;;;;0.80;0.80;;;;;;;;;;4994868;28;20224;-76
2021/06/29 12:19:32;;;;;;;0.93;0.90;;;;;;;;;;5017946;28;20448;-77
2021/06/29 12:21:58;;;;;;;4.00;0.97;;;;;;;;;;4994873;28;20449;-76
2021/06/29 12:24:24;;;;;;;1.10;1.00;;;;;;;;;;5001870;28;20427;-76
2021/06/29 12:26:50;;;;;;;2.00;1.23;;;;;;;;;;5015652;28;20201;-76
2021/06/29 12:29:38;;;;;;;2.63;1.50;;;;;;;;;;5005688;28;20424;-76
2021/06/29 12:32:17;;;;;;;1.65;1.20;;;;;;;;;;5002551;28;20628;-76
2021/06/29 12:34:44;;;;;;;1.40;1.20;;;;;;;;;;5014494;28;20714;-75
2021/06/29 12:37:10;;;;;;;2.67;1.50;;;;;;;;;;5002738;28;20185;-75
2021/06/29 12:39:36;;;;;;;1.15;1.10;;;;;;;;;;5001923;28;20230;-75
2021/06/29 12:42:12;;;;;;;1.33;1.20;;;;;;;;;;5017795;28;20223;-75
2021/06/29 12:44:39;;;;;;;1.65;1.27;;;;;;;;;;5019920;28;20643;-75
2021/06/29 12:47:05;;;;;;;1.88;1.10;;;;;;;;;;5004844;28;20236;-75
2021/06/29 12:49:33;;;;;;;3.35;1.55;;;;;;;;;;5001721;28;20204;-76
2021/06/29 12:52:02;;;;;;;1.42;1.20;;;;;;;;;;5017733;28;20189;-76
2021/06/29 12:54:29;;;;;;;4.63;1.40;;;;;;;;;;5014349;28;20729;-75
2021/06/29 12:56:59;;;;;;;1.40;1.23;;;;;;;;;;5002168;28;20191;-76
2021/06/29 12:59:27;;;;;;;2.45;1.90;;;;;;;;;;5020036;28;20182;-76
2021/06/29 13:01:55;;;;;;;1.30;1.20;;;;;;;;;;5001522;28;20349;-75
2021/06/29 13:04:26;;;;;;;2.47;1.30;;;;;;;;;;5017853;28;20207;-75
2021/06/29 13:07:03;;;;;;;1.30;1.20;;;;;;;;;;5000369;28;20278;-75
2021/06/29 13:09:37;;;;;;;1.48;1.08;;;;;;;;;;5017554;28;20295;-76
2021/06/29 13:12:07;;;;;;;1.10;1.00;;;;;;;;;;5016984;28;20185;-76
2021/06/29 13:14:34;;;;;;;1.20;0.90;;;;;;;;;;5019483;28;20181;-76
2021/06/29 13:17:04;;;;;;;1.30;1.00;;;;;;;;;;5001425;28;20253;-76
2021/06/29 13:19:30;;;;;;;1.10;1.00;;;;;;;;;;5002556;28;20192;-75
2021/06/29 13:22:01;;;;;;;0.93;0.90;;;;;;;;;;5000624;28;20200;-76
2021/06/29 13:24:39;;;;;;;1.45;1.10;;;;;;;;;;5000300;28;20185;-76
2021/06/29 13:27:05;;;;;;;1.52;1.00;;;;;;;;;;5015154;28;20190;-76
2021/06/29 13:29:34;;;;;;;1.20;1.10;;;;;;;;;;5018595;28;20181;-76
2021/06/29 13:32:01;;;;;;;1.50;0.93;;;;;;;;;;5001418;28;20204;-76
2021/06/29 13:34:29;;;;;;;1.90;1.20;;;;;;;;;;5002497;28;20193;-76
2021/06/29 13:36:55;;;;;;;2.08;1.30;;;;;;;;;;5000341;28;20203;-76
2021/06/29 13:39:25;;;;;;;1.47;0.90;;;;;;;;;;5001698;28;20666;-75
2021/06/29 13:41:51;;;;;;;0.98;0.98;;;;;;;;;;5002631;28;20467;-77
2021/06/29 13:44:17;;;;;;;0.90;0.90;;;;;;;;;;5003897;28;20222;-77
2021/06/29 13:46:44;;;;;;;2.10;0.90;;;;;;;;;;5002044;28;20449;-77
2021/06/29 13:49:17;;;;;;;1.10;1.00;;;;;;;;;;4993782;28;20186;-77
2021/06/29 13:51:43;;;;;;;1.88;1.15;;;;;;;;;;5000266;28;20692;-77
2021/06/29 13:54:15;;;;;;;1.10;1.00;;;;;;;;;;5017074;28;20197;-77
2021/06/29 13:56:41;;;;;;;1.50;1.33;;;;;;;;;;5016498;28;20486;-76
2021/06/29 13:59:07;;;;;;;2.70;1.00;;;;;;;;;;5003662;28;20179;-77
2021/06/29 14:01:34;;;;;;;1.58;1.20;;;;;;;;;;5015320;28;20459;-77
2021/06/29 14:04:01;;;;;;;1.20;1.10;;;;;;;;;;5017359;28;20183;-76
2021/06/29 14:06:27;;;;;;;1.10;1.00;;;;;;;;;;5018579;28;20184;-77
2021/06/29 14:09:05;;;;;;;3.77;1.20;;;;;;;;;;5002777;28;20196;-77
2021/06/29 14:11:35;;;;;;;1.23;1.13;;;;;;;;;;5015611;28;20392;-77
2021/06/29 14:14:01;;;;;;;1.27;1.17;;;;;;;;;;5002190;28;20175;-77
2021/06/29 14:16:27;;;;;;;1.20;1.10;;;;;;;;;;5015054;28;20326;-76
2021/06/29 14:18:54;;;;;;;1.73;1.42;;;;;;;;;;5016600;28;20435;-77
2021/06/29 14:21:24;;;;;;;1.10;1.00;;;;;;;;;;5015552;28;20177;-77
2021/06/29 14:23:51;;;;;;;1.40;1.23;;;;;;;;;;5014282;28;20177;-78
2021/06/29 14:26:19;;;;;;;1.48;1.20;;;;;;;;;;5000920;28;20204;-77
2021/06/29 14:28:45;;;;;;;1.30;1.20;;;;;;;;;;5000572;28;20280;-77
2021/06/29 14:31:12;;;;;;;1.10;1.00;;;;;;;;;;4999845;28;20207;-77
2021/06/29 14:33:38;;;;;;;1.40;1.30;;;;;;;;;;5001481;28;20549;-77
2021/06/29 14:36:04;;;;;;;1.20;1.10;;;;;;;;;;5015288;28;20188;-77
2021/06/29 14:38:30;;;;;;;1.20;1.10;;;;;;;;;;5002200;28;20181;-77
2021/06/29 14:40:57;;;;;;;1.30;1.20;;;;;;;;;;5018379;28;20186;-77
2021/06/29 14:43:23;;;;;;;1.52;1.30;;;;;;;;;;5002330;28;20467;-77
2021/06/29 14:45:49;;;;;;;0.98;0.95;;;;;;;;;;5017330;28;20171;-77
2021/06/29 14:48:15;;;;;;;1.20;1.10;;;;;;;;;;5016882;28;20533;-77
2021/06/29 14:50:42;;;;;;;2.72;1.10;;;;;;;;;;5000370;28;20663;-77
2021/06/29 14:53:08;;;;;;;1.35;0.90;;;;;;;;;;5002549;28;20187;-77